Hl Boryeong — 3FYM — position and weather

sailwx.info

Track history (hours):
 
Tides and Currents Weather Stations Pressure Air Temp Water Temp Dewpoint Dewpoint Depression Visibility Wind Speed Wind Dir Waves Ship Positions

Hl Boryeong

Last reported at 2017-Mar-22 12:20 UTC. Time now 2017-Apr-29 23:25 UTC.
Position S 26°08' E 154°03'.
Warning: this ship's position is 38 days out of date.

Length 273 m; draft 14.9 m.

Type: Cargo ship. MMSI: 374471000.

Date/timePositionNaut miles runAvg speedWind from/ knotsBaromVisibWave heightAir tempDewpointWater temp
2017-Mar-22 12:20S 26°08' E 154°03'10 9.6
2017-Mar-22 11:17S 26°18' E 154°03'8 9.3
2017-Mar-22 10:24S 26°27' E 154°03'341 7.7
2017-Mar-20 14:20S 32°02' E 152°52'25 6.6
2017-Mar-20 10:33S 32°26' E 152°42'7 6.6
2017-Mar-20 09:33S 32°32' E 152°39'8 8.0
2017-Mar-20 08:33S 32°37' E 152°32'9 8.6
2017-Mar-20 07:33S 32°43' E 152°25'8 8.1
2017-Mar-20 06:33S 32°48' E 152°17'8 8.3
2017-Mar-20 05:33S 32°52' E 152°08'9 8.7
2017-Mar-20 04:33S 32°55' E 151°58'8 7.8
2017-Mar-20 03:33S 32°56' E 151°49'3 3.4
2017-Mar-20 02:33S 32°54' E 151°46'1 0.6
2017-Mar-20 01:33S 32°53' E 151°46'0 0.1
2017-Mar-20 00:33S 32°53' E 151°46'0 0.1
2017-Mar-19 23:33S 32°53' E 151°46'0 0.1
2017-Mar-19 22:33S 32°53' E 151°46'0 0.1
2017-Mar-19 21:33S 32°53' E 151°46'0 0.1
2017-Mar-19 20:33S 32°53' E 151°46'0 0.1
2017-Mar-19 19:33S 32°53' E 151°46'0 0.0
2017-Mar-19 18:27S 32°53' E 151°46'0 0.0
2017-Mar-19 17:09S 32°53' E 151°46'0 0.0
2017-Mar-19 16:33S 32°53' E 151°46'0 0.1
2017-Mar-19 15:33S 32°53' E 151°46'0 0.1
2017-Mar-19 14:33S 32°53' E 151°46'0 0.0
2017-Mar-19 13:33S 32°53' E 151°46'0 0.0
2017-Mar-19 12:33S 32°53' E 151°46'0 0.0
2017-Mar-19 11:33S 32°53' E 151°46'0 0.0
2017-Mar-19 10:33S 32°53' E 151°46'0 0.0
2017-Mar-19 09:33S 32°53' E 151°46'0 0.0
2017-Mar-19 08:33S 32°53' E 151°46'0 0.0
2017-Mar-19 07:33S 32°53' E 151°46'0 0.0
2017-Mar-19 06:33S 32°53' E 151°46'0 0.0
2017-Mar-19 05:33S 32°53' E 151°46'0 0.0
2017-Mar-19 04:33S 32°53' E 151°46'0 0.0
2017-Mar-19 03:33S 32°53' E 151°46'0 0.0
2017-Mar-19 02:33S 32°53' E 151°46'0 0.0
2017-Mar-19 01:33S 32°53' E 151°46'0 0.0
2017-Mar-19 00:33S 32°53' E 151°46'0 0.0
2017-Mar-18 23:33S 32°53' E 151°46'0 0.0
2017-Mar-18 22:33S 32°53' E 151°46'0 0.0
2017-Mar-18 21:33S 32°53' E 151°46'0 0.0
2017-Mar-18 20:33S 32°53' E 151°46'0 0.0
2017-Mar-18 19:33S 32°53' E 151°46'0 0.0
2017-Mar-18 18:33S 32°53' E 151°46'0 0.0
2017-Mar-18 17:33S 32°53' E 151°46'0 0.0
2017-Mar-18 16:33S 32°53' E 151°46'0 0.0
2017-Mar-18 15:33S 32°53' E 151°46'0 0.0
2017-Mar-18 14:33S 32°53' E 151°46'0 0.0
2017-Mar-18 13:33S 32°53' E 151°46'0 0.0
2017-Mar-18 12:34S 32°53' E 151°46'0 0.0
2017-Mar-18 11:34S 32°53' E 151°46'0 0.0
2017-Mar-18 10:34S 32°53' E 151°46'0 0.0
2017-Mar-18 09:34S 32°53' E 151°46'1 1.4
2017-Mar-18 08:34S 32°54' E 151°46'7 6.6
2017-Mar-18 07:29S 32°59' E 151°52'9 9.9
2017-Mar-18 06:33S 33°08' E 151°54'3 2.6
2017-Mar-18 05:34S 33°11' E 151°55'4 4.2
2017-Mar-18 04:33S 33°07' E 151°56'5 5.3
2017-Mar-18 03:34S 33°12' E 151°55'5 5.0
2017-Mar-18 02:33S 33°17' E 151°53'5 1.2
2017-Mar-17 22:13S 33°14' E 151°48'2 2.6
2017-Mar-17 21:34S 33°12' E 151°49'2 2.4
2017-Mar-17 20:34S 33°10' E 151°50'2 2.4
2017-Mar-17 19:33S 33°08' E 151°52'2 2.1
2017-Mar-17 18:33S 33°06' E 151°53'2 2.4
2017-Mar-17 17:33S 33°04' E 151°54'3 2.7
2017-Mar-17 16:33S 33°02' E 151°56'3 2.8
2017-Mar-17 15:34S 32°59' E 151°58'3 2.8
2017-Mar-17 14:34S 32°57' E 151°60'5 5.1
2017-Mar-17 13:34S 32°54' E 152°04'8 8.2
2017-Mar-17 12:34S 32°52' E 152°14'6 6.3
2017-Mar-17 11:33S 32°48' E 152°19'6 5.7
2017-Mar-17 10:34S 32°43' E 152°24'6 6.2
2017-Mar-17 09:34S 32°39' E 152°29'7 6.7
2017-Mar-17 08:34S 32°34' E 152°35'7 6.6
2017-Mar-17 07:33S 32°29' E 152°40'7 6.8
2017-Mar-17 06:32S 32°23' E 152°43'21 7.0
2017-Mar-17 03:33S 32°03' E 152°51'25710.7
2017-Mar-16 03:29S 27°53' E 153°58'12 6.4
2017-Mar-16 01:33S 27°41' E 153°54'14 4.6
2017-Mar-15 22:25S 27°27' E 153°49'0 0.5
2017-Mar-15 21:33S 27°27' E 153°49'0 0.2
2017-Mar-15 20:32S 27°27' E 153°49'0 0.3
2017-Mar-15 19:33S 27°27' E 153°50'1 0.6
2017-Mar-15 18:30S 27°27' E 153°50'1 0.6
2017-Mar-15 17:33S 27°27' E 153°51'1 0.6
2017-Mar-15 16:33S 27°27' E 153°51'1 0.6
2017-Mar-15 15:33S 27°27' E 153°52'1 0.6
2017-Mar-15 14:33S 27°27' E 153°53'1 0.6
2017-Mar-15 13:10S 27°27' E 153°54'0 0.4
2017-Mar-15 12:24S 27°27' E 153°54'2 0.8
2017-Mar-15 10:22S 27°26' E 153°55'3 1.0
2017-Mar-15 07:33S 27°23' E 153°57'1 1.1
2017-Mar-15 06:26S 27°22' E 153°58'7 0.8
2017-Mar-14 21:33S 27°20' E 154°05'0 0.3
2017-Mar-14 20:13S 27°20' E 154°06'20 2.0
2017-Mar-14 10:07S 27°07' E 153°49'610.2
2017-Mar-14 09:33S 27°03' E 153°45'3 3.1
2017-Mar-14 08:34S 26°60' E 153°45'3 2.9
2017-Mar-14 07:33S 26°57' E 153°47'7 6.7
2017-Mar-14 06:34S 26°52' E 153°51'1211.1
2017-Mar-14 05:31S 26°41' E 153°57'  
Track history (hours):
 
Tides and Currents Weather Stations Pressure Air Temp Water Temp Dewpoint Dewpoint Depression Visibility Wind Speed Wind Dir Waves Ship Positions

Hl Boryeong

Last reported at 2017-Mar-22 12:20 UTC. Time now 2017-Apr-29 23:25 UTC.
Position S 26°08' E 154°03'.
Warning: this ship's position is 38 days out of date.

Length 273 m; draft 14.9 m.

Type: Cargo ship. MMSI: 374471000.

Date/timePositionNaut miles runAvg speedWind from/ knotsBaromVisibWave heightAir tempDewpointWater temp
2017-Mar-22 12:20S 26°08' E 154°03'10 9.6
2017-Mar-22 11:17S 26°18' E 154°03'8 9.3
2017-Mar-22 10:24S 26°27' E 154°03'341 7.7
2017-Mar-20 14:20S 32°02' E 152°52'25 6.6
2017-Mar-20 10:33S 32°26' E 152°42'7 6.6
2017-Mar-20 09:33S 32°32' E 152°39'8 8.0
2017-Mar-20 08:33S 32°37' E 152°32'9 8.6
2017-Mar-20 07:33S 32°43' E 152°25'8 8.1
2017-Mar-20 06:33S 32°48' E 152°17'8 8.3
2017-Mar-20 05:33S 32°52' E 152°08'9 8.7
2017-Mar-20 04:33S 32°55' E 151°58'8 7.8
2017-Mar-20 03:33S 32°56' E 151°49'3 3.4
2017-Mar-20 02:33S 32°54' E 151°46'1 0.6
2017-Mar-20 01:33S 32°53' E 151°46'0 0.1
2017-Mar-20 00:33S 32°53' E 151°46'0 0.1
2017-Mar-19 23:33S 32°53' E 151°46'0 0.1
2017-Mar-19 22:33S 32°53' E 151°46'0 0.1
2017-Mar-19 21:33S 32°53' E 151°46'0 0.1
2017-Mar-19 20:33S 32°53' E 151°46'0 0.1
2017-Mar-19 19:33S 32°53' E 151°46'0 0.0
2017-Mar-19 18:27S 32°53' E 151°46'0 0.0
2017-Mar-19 17:09S 32°53' E 151°46'0 0.0
2017-Mar-19 16:33S 32°53' E 151°46'0 0.1
2017-Mar-19 15:33S 32°53' E 151°46'0 0.1
2017-Mar-19 14:33S 32°53' E 151°46'0 0.0
2017-Mar-19 13:33S 32°53' E 151°46'0 0.0
2017-Mar-19 12:33S 32°53' E 151°46'0 0.0
2017-Mar-19 11:33S 32°53' E 151°46'0 0.0
2017-Mar-19 10:33S 32°53' E 151°46'0 0.0
2017-Mar-19 09:33S 32°53' E 151°46'0 0.0
2017-Mar-19 08:33S 32°53' E 151°46'0 0.0
2017-Mar-19 07:33S 32°53' E 151°46'0 0.0
2017-Mar-19 06:33S 32°53' E 151°46'0 0.0
2017-Mar-19 05:33S 32°53' E 151°46'0 0.0
2017-Mar-19 04:33S 32°53' E 151°46'0 0.0
2017-Mar-19 03:33S 32°53' E 151°46'0 0.0
2017-Mar-19 02:33S 32°53' E 151°46'0 0.0
2017-Mar-19 01:33S 32°53' E 151°46'0 0.0
2017-Mar-19 00:33S 32°53' E 151°46'0 0.0
2017-Mar-18 23:33S 32°53' E 151°46'0 0.0
2017-Mar-18 22:33S 32°53' E 151°46'0 0.0
2017-Mar-18 21:33S 32°53' E 151°46'0 0.0
2017-Mar-18 20:33S 32°53' E 151°46'0 0.0
2017-Mar-18 19:33S 32°53' E 151°46'0 0.0
2017-Mar-18 18:33S 32°53' E 151°46'0 0.0
2017-Mar-18 17:33S 32°53' E 151°46'0 0.0
2017-Mar-18 16:33S 32°53' E 151°46'0 0.0
2017-Mar-18 15:33S 32°53' E 151°46'0 0.0
2017-Mar-18 14:33S 32°53' E 151°46'0 0.0
2017-Mar-18 13:33S 32°53' E 151°46'0 0.0
2017-Mar-18 12:34S 32°53' E 151°46'0 0.0
2017-Mar-18 11:34S 32°53' E 151°46'0 0.0
2017-Mar-18 10:34S 32°53' E 151°46'0 0.0
2017-Mar-18 09:34S 32°53' E 151°46'1 1.4
2017-Mar-18 08:34S 32°54' E 151°46'7 6.6
2017-Mar-18 07:29S 32°59' E 151°52'9 9.9
2017-Mar-18 06:33S 33°08' E 151°54'3 2.6
2017-Mar-18 05:34S 33°11' E 151°55'4 4.2
2017-Mar-18 04:33S 33°07' E 151°56'5 5.3
2017-Mar-18 03:34S 33°12' E 151°55'5 5.0
2017-Mar-18 02:33S 33°17' E 151°53'5 1.2
2017-Mar-17 22:13S 33°14' E 151°48'2 2.6
2017-Mar-17 21:34S 33°12' E 151°49'2 2.4
2017-Mar-17 20:34S 33°10' E 151°50'2 2.4
2017-Mar-17 19:33S 33°08' E 151°52'2 2.1
2017-Mar-17 18:33S 33°06' E 151°53'2 2.4
2017-Mar-17 17:33S 33°04' E 151°54'3 2.7
2017-Mar-17 16:33S 33°02' E 151°56'3 2.8
2017-Mar-17 15:34S 32°59' E 151°58'3 2.8
2017-Mar-17 14:34S 32°57' E 151°60'5 5.1
2017-Mar-17 13:34S 32°54' E 152°04'8 8.2
2017-Mar-17 12:34S 32°52' E 152°14'6 6.3
2017-Mar-17 11:33S 32°48' E 152°19'6 5.7
2017-Mar-17 10:34S 32°43' E 152°24'6 6.2
2017-Mar-17 09:34S 32°39' E 152°29'7 6.7
2017-Mar-17 08:34S 32°34' E 152°35'7 6.6
2017-Mar-17 07:33S 32°29' E 152°40'7 6.8
2017-Mar-17 06:32S 32°23' E 152°43'21 7.0
2017-Mar-17 03:33S 32°03' E 152°51'25710.7
2017-Mar-16 03:29S 27°53' E 153°58'12 6.4
2017-Mar-16 01:33S 27°41' E 153°54'14 4.6
2017-Mar-15 22:25S 27°27' E 153°49'0 0.5
2017-Mar-15 21:33S 27°27' E 153°49'0 0.2
2017-Mar-15 20:32S 27°27' E 153°49'0 0.3
2017-Mar-15 19:33S 27°27' E 153°50'1 0.6
2017-Mar-15 18:30S 27°27' E 153°50'1 0.6
2017-Mar-15 17:33S 27°27' E 153°51'1 0.6
2017-Mar-15 16:33S 27°27' E 153°51'1 0.6
2017-Mar-15 15:33S 27°27' E 153°52'1 0.6
2017-Mar-15 14:33S 27°27' E 153°53'1 0.6
2017-Mar-15 13:10S 27°27' E 153°54'0 0.4
2017-Mar-15 12:24S 27°27' E 153°54'2 0.8
2017-Mar-15 10:22S 27°26' E 153°55'3 1.0
2017-Mar-15 07:33S 27°23' E 153°57'1 1.1
2017-Mar-15 06:26S 27°22' E 153°58'7 0.8
2017-Mar-14 21:33S 27°20' E 154°05'0 0.3
2017-Mar-14 20:13S 27°20' E 154°06'20 2.0
2017-Mar-14 10:07S 27°07' E 153°49'610.2
2017-Mar-14 09:33S 27°03' E 153°45'3 3.1
2017-Mar-14 08:34S 26°60' E 153°45'3 2.9
2017-Mar-14 07:33S 26°57' E 153°47'7 6.7
2017-Mar-14 06:34S 26°52' E 153°51'1211.1
2017-Mar-14 05:31S 26°41' E 153°57'  

Dump ship's entire track history